Putney, Kentucky
Current Conditions -  °F | °C
As of 4:55 PM on Monday 20 Oct 2014 (Local Time) from KI35 Reporting Station
Broken Clouds Broken Clouds  
Wind Chill: 61°   Ceiling: 9000
Heat Index: 61°   Visibility: 10mi
Dew Point: 45°   Wind: 0mph
Humidity: 55%   Direction: NA
Pressure: 29.97"   Gusts: NA
Location:  36.91°N, 83.23°W
Report Text: KI35 202055Z AUTO 00000KT 10SM BKN090 16/07 A2997 RMK AO1
Loading
Personal Weather Stations






























Interactive Weather Map
Tropical Storm Tracking
New forecast layout! Learn more

10-Day Weather Forecast

Advertisements
Track Severe Weather on mobile